createdAt,value
2018-10-09T00:02:07.767Z,14.15
2018-10-09T00:04:36.161Z,11.53
2018-10-09T00:07:04.462Z,11.00
2018-10-09T00:09:32.754Z,14.80
2018-10-09T00:12:00.991Z,13.50
2018-10-09T00:14:29.265Z,14.80
2018-10-09T00:16:57.530Z,14.60
2018-10-09T00:19:25.863Z,14.75
2018-10-09T00:21:54.142Z,14.98
2018-10-09T00:24:22.445Z,12.65
2018-10-09T00:26:50.661Z,13.28
2018-10-09T00:29:18.911Z,11.83
2018-10-09T00:31:47.207Z,13.47
2018-10-09T00:34:15.474Z,11.70
2018-10-09T00:36:43.711Z,13.50
2018-10-09T00:39:12.116Z,12.68
2018-10-09T00:41:40.490Z,16.00
2018-10-09T00:44:08.966Z,15.37
2018-10-09T00:46:37.206Z,11.88
2018-10-09T00:49:05.688Z,11.50
2018-10-09T00:51:33.957Z,15.23
2018-10-09T00:54:02.231Z,10.97
2018-10-09T00:56:30.470Z,11.68
2018-10-09T00:58:58.919Z,13.08
2018-10-09T01:01:27.307Z,9.98
2018-10-09T01:03:55.586Z,12.25
2018-10-09T01:06:23.851Z,13.60
2018-10-09T01:08:52.157Z,12.95
2018-10-09T01:11:20.487Z,12.07
2018-10-09T01:13:48.767Z,12.40
2018-10-09T01:16:17.023Z,16.20
2018-10-09T01:18:45.254Z,10.73
2018-10-09T01:21:13.571Z,12.23
2018-10-09T01:23:41.825Z,14.73
2018-10-09T01:26:10.140Z,11.80
2018-10-09T01:28:38.601Z,13.30
2018-10-09T01:31:07.030Z,11.25
2018-10-09T01:33:35.243Z,13.18
2018-10-09T01:36:03.556Z,12.55
2018-10-09T01:38:31.825Z,14.00
2018-10-09T01:41:00.103Z,12.73
2018-10-09T01:43:28.318Z,11.65
2018-10-09T01:45:56.589Z,12.00
2018-10-09T01:48:24.841Z,13.18
2018-10-09T01:50:53.103Z,12.82
2018-10-09T01:53:21.336Z,10.65
2018-10-09T01:55:49.599Z,11.93
2018-10-09T01:58:17.861Z,10.90
2018-10-09T02:00:46.153Z,12.60
2018-10-09T02:03:14.408Z,16.00
2018-10-09T02:05:42.651Z,12.25
2018-10-09T02:08:10.899Z,13.62
2018-10-09T02:10:39.176Z,12.45
2018-10-09T02:13:07.506Z,13.93
2018-10-09T02:15:35.747Z,13.93
2018-10-09T02:18:03.990Z,14.10
2018-10-09T02:20:32.259Z,13.93
2018-10-09T02:23:00.501Z,13.10
2018-10-09T02:25:28.833Z,13.35
2018-10-09T02:27:57.092Z,13.83
2018-10-09T02:30:25.352Z,11.33
2018-10-09T02:32:53.623Z,15.50
2018-10-09T02:35:21.974Z,13.40
2018-10-09T02:37:50.224Z,12.68
2018-10-09T02:40:18.443Z,13.05
2018-10-09T02:42:46.754Z,12.90
2018-10-09T02:45:15.011Z,13.28
2018-10-09T02:47:43.357Z,13.30
2018-10-09T02:50:11.599Z,11.73
2018-10-09T02:52:39.820Z,12.15
2018-10-09T02:55:08.155Z,10.82
2018-10-09T02:57:36.422Z,11.48
2018-10-09T03:00:04.763Z,12.05
2018-10-09T03:02:33.003Z,11.43
2018-10-09T03:05:01.271Z,13.78
2018-10-09T03:07:29.561Z,14.40
2018-10-09T03:09:57.807Z,13.13
2018-10-09T03:12:26.027Z,12.05
2018-10-09T03:14:54.309Z,13.20
2018-10-09T03:17:22.571Z,13.65
2018-10-09T03:19:50.847Z,14.70
2018-10-09T03:22:19.099Z,12.20
2018-10-09T03:24:47.360Z,14.97
2018-10-09T03:27:15.621Z,12.60
2018-10-09T03:29:43.849Z,13.05
2018-10-09T03:32:12.093Z,14.63
2018-10-09T03:34:40.353Z,14.05
2018-10-09T03:37:08.612Z,12.35
2018-10-09T03:39:36.929Z,13.93
2018-10-09T03:42:05.196Z,12.78
2018-10-09T03:44:33.645Z,11.90
2018-10-09T03:47:01.929Z,12.80
2018-10-09T03:49:30.201Z,13.62
2018-10-09T03:51:58.471Z,11.17
2018-10-09T03:54:26.823Z,15.45
2018-10-09T03:56:55.065Z,14.63
2018-10-09T03:59:23.456Z,13.40
2018-10-09T04:01:51.742Z,12.05
2018-10-09T04:04:19.999Z,13.03
2018-10-09T04:06:48.233Z,15.68
2018-10-09T04:09:16.530Z,11.18
2018-10-09T04:11:44.765Z,14.25
2018-10-09T04:14:13.093Z,13.88
2018-10-09T04:16:41.385Z,14.40
2018-10-09T04:19:09.848Z,14.00
2018-10-09T04:21:38.110Z,15.35
2018-10-09T04:24:06.377Z,13.35
2018-10-09T04:26:34.861Z,14.20
2018-10-09T04:29:03.111Z,14.03
2018-10-09T04:31:31.369Z,11.12
2018-10-09T04:33:59.593Z,10.98
2018-10-09T04:36:27.887Z,13.38
2018-10-09T04:38:56.153Z,11.45
2018-10-09T04:41:24.369Z,10.98
2018-10-09T04:43:52.662Z,11.27
2018-10-09T04:46:20.870Z,12.93
2018-10-09T04:48:49.141Z,14.23
2018-10-09T04:51:17.952Z,14.00
2018-10-09T04:53:46.213Z,14.40
2018-10-09T04:56:14.490Z,14.47
2018-10-09T04:58:42.755Z,15.13
2018-10-09T05:01:10.999Z,15.05
2018-10-09T05:03:39.298Z,22.05
2018-10-09T05:06:07.789Z,22.05
2018-10-09T05:08:36.040Z,22.27
2018-10-09T05:11:04.397Z,23.32
2018-10-09T05:13:32.674Z,21.87
2018-10-09T05:16:00.966Z,26.52
2018-10-09T05:18:29.226Z,18.90
2018-10-09T05:20:57.530Z,15.25
2018-10-09T05:23:25.804Z,17.02
2018-10-09T05:25:54.106Z,25.80
2018-10-09T05:28:22.447Z,21.53
2018-10-09T05:30:50.663Z,17.40
2018-10-09T05:33:19.169Z,19.25
2018-10-09T05:35:47.426Z,18.02
2018-10-09T05:38:15.693Z,13.60
2018-10-09T05:40:43.975Z,15.00
2018-10-09T05:43:12.251Z,19.75
2018-10-09T05:45:41.195Z,18.50
2018-10-09T05:48:10.543Z,15.20
2018-10-09T05:50:38.868Z,14.80
2018-10-09T05:53:07.243Z,16.60
2018-10-09T05:55:36.284Z,16.30
2018-10-09T05:58:04.587Z,16.40
2018-10-09T06:00:32.830Z,16.37
2018-10-09T06:03:01.347Z,15.08
2018-10-09T06:05:30.147Z,18.12
2018-10-09T06:07:58.421Z,14.05
2018-10-09T06:10:26.665Z,18.32
2018-10-09T06:12:54.937Z,15.83
2018-10-09T06:15:23.215Z,17.07
2018-10-09T06:17:51.474Z,13.77
2018-10-09T06:20:19.778Z,14.03
2018-10-09T06:22:48.038Z,15.93
2018-10-09T06:25:16.465Z,19.12
2018-10-09T06:27:44.737Z,15.40
2018-10-09T06:30:13.009Z,16.77
2018-10-09T06:32:41.362Z,14.40
2018-10-09T06:35:09.625Z,19.50
2018-10-09T06:37:37.879Z,16.00
2018-10-09T06:40:06.461Z,13.40
2018-10-09T06:42:34.814Z,22.70
2018-10-09T06:45:03.050Z,13.85
2018-10-09T06:47:31.340Z,21.07
2018-10-09T06:49:59.583Z,18.12
2018-10-09T06:52:27.868Z,24.18
2018-10-09T06:54:56.168Z,37.42
2018-10-09T06:57:24.508Z,19.10
2018-10-09T06:59:52.836Z,22.02
2018-10-09T07:02:21.270Z,20.23
2018-10-09T07:04:49.548Z,19.63
2018-10-09T07:07:17.808Z,23.45
2018-10-09T07:09:46.103Z,17.85
2018-10-09T07:12:14.402Z,15.55
2018-10-09T07:14:42.766Z,16.55
2018-10-09T07:17:11.171Z,15.60
2018-10-09T07:19:39.375Z,18.35
2018-10-09T07:22:07.675Z,21.33
2018-10-09T07:24:36.184Z,19.57
2018-10-09T07:27:04.656Z,18.67
2018-10-09T07:29:32.972Z,21.35
2018-10-09T07:32:01.276Z,17.15
2018-10-09T07:34:29.607Z,20.20
2018-10-09T07:36:57.902Z,20.02
2018-10-09T07:39:26.207Z,28.55
2018-10-09T07:41:54.470Z,23.63
2018-10-09T07:44:22.772Z,23.27
2018-10-09T07:46:51.048Z,19.32
2018-10-09T07:49:19.309Z,23.22
2018-10-09T07:51:47.562Z,23.32
2018-10-09T07:54:15.835Z,23.70
2018-10-09T07:56:44.099Z,19.15
2018-10-09T07:59:12.352Z,18.50
2018-10-09T08:01:40.616Z,17.95
2018-10-09T08:04:08.886Z,19.93
2018-10-09T08:06:37.286Z,21.07
2018-10-09T08:09:08.496Z,20.57
2018-10-09T08:11:36.766Z,19.15
2018-10-09T08:14:05.031Z,19.90
2018-10-09T08:16:33.288Z,21.02
2018-10-09T08:19:01.724Z,23.25
2018-10-09T08:21:30.017Z,24.30
2018-10-09T08:23:58.291Z,22.60
2018-10-09T08:26:26.613Z,24.75
2018-10-09T08:28:54.917Z,29.63
2018-10-09T08:31:23.238Z,22.82
2018-10-09T08:33:51.506Z,28.75
2018-10-09T08:36:19.752Z,28.38
2018-10-09T08:38:48.278Z,24.33
2018-10-09T08:41:16.552Z,26.97
2018-10-09T08:43:44.873Z,25.05
2018-10-09T08:46:13.259Z,24.37
2018-10-09T08:48:42.072Z,26.97
2018-10-09T08:51:10.367Z,26.42
2018-10-09T08:53:38.631Z,25.57
2018-10-09T08:56:07.280Z,23.15
2018-10-09T08:58:35.585Z,21.05
2018-10-09T09:01:03.867Z,28.07
2018-10-09T09:03:32.235Z,25.60
2018-10-09T09:06:00.432Z,33.53
2018-10-09T09:08:28.914Z,27.27
2018-10-09T09:10:57.183Z,23.60
2018-10-09T09:13:25.451Z,27.77
2018-10-09T09:15:53.784Z,39.25
2018-10-09T09:18:22.016Z,32.93
2018-10-09T09:20:50.301Z,29.18
2018-10-09T09:23:18.585Z,27.45
2018-10-09T09:25:46.833Z,30.65
2018-10-09T09:28:15.179Z,43.38
2018-10-09T09:30:43.440Z,35.78
2018-10-09T09:33:11.794Z,33.58
2018-10-09T09:35:40.081Z,32.90
2018-10-09T09:38:08.377Z,28.43
2018-10-09T09:40:36.794Z,32.13
2018-10-09T09:43:05.050Z,31.93
2018-10-09T09:45:33.321Z,33.88
2018-10-09T09:48:01.663Z,31.70
2018-10-09T09:50:29.966Z,32.55
2018-10-09T09:52:58.273Z,36.23
2018-10-09T09:55:26.620Z,35.08
2018-10-09T09:57:54.993Z,37.95
2018-10-09T10:00:28.505Z,37.05
2018-10-09T10:02:56.827Z,36.50
2018-10-09T10:05:25.159Z,43.27
2018-10-09T10:07:53.411Z,37.08
2018-10-09T10:10:21.705Z,38.95
2018-10-09T10:12:50.006Z,35.25
2018-10-09T10:15:18.488Z,37.00
2018-10-09T10:17:46.751Z,41.13
2018-10-09T10:20:15.093Z,34.30
2018-10-09T10:22:43.390Z,35.63
2018-10-09T10:25:11.642Z,37.73
2018-10-09T10:27:39.908Z,40.73
2018-10-09T10:30:08.208Z,36.38
2018-10-09T10:32:36.525Z,41.50
2018-10-09T10:35:04.876Z,38.53
2018-10-09T10:37:33.169Z,32.90
2018-10-09T10:40:01.438Z,34.43
2018-10-09T10:42:29.715Z,33.90
2018-10-09T10:44:57.988Z,34.17
2018-10-09T10:47:26.279Z,33.57
2018-10-09T10:49:54.562Z,34.10
2018-10-09T10:52:22.825Z,37.03
2018-10-09T10:54:51.177Z,41.48
2018-10-09T10:57:19.417Z,30.08
2018-10-09T10:59:47.755Z,36.63
2018-10-09T11:02:16.034Z,34.80
2018-10-09T11:04:44.324Z,36.58
2018-10-09T11:07:12.602Z,33.80
2018-10-09T11:09:40.931Z,33.10
2018-10-09T11:12:09.205Z,39.08
2018-10-09T11:14:37.569Z,34.05
2018-10-09T11:17:05.787Z,36.85
2018-10-09T11:19:34.048Z,35.33
2018-10-09T11:22:02.355Z,40.23
2018-10-09T11:24:30.610Z,38.33
2018-10-09T11:26:58.913Z,38.40
2018-10-09T11:29:27.288Z,38.00
2018-10-09T11:31:55.531Z,35.03
2018-10-09T11:34:23.826Z,37.28
2018-10-09T11:36:52.060Z,41.85
2018-10-09T11:39:20.407Z,36.50
2018-10-09T11:41:48.670Z,46.00
2018-10-09T11:44:16.970Z,34.58
2018-10-09T11:46:45.236Z,35.63
2018-10-09T11:49:13.487Z,38.28
2018-10-09T11:51:41.995Z,35.35
2018-10-09T11:54:10.629Z,35.68
2018-10-09T11:56:39.124Z,37.05
2018-10-09T11:59:07.648Z,36.73
2018-10-09T12:01:36.999Z,38.10
2018-10-09T12:04:05.264Z,35.13
2018-10-09T12:06:33.531Z,32.73
2018-10-09T12:09:01.821Z,39.23
2018-10-09T12:11:30.088Z,36.97
2018-10-09T12:13:58.380Z,32.80
2018-10-09T12:16:26.718Z,35.35
2018-10-09T12:18:54.999Z,34.23
2018-10-09T12:21:23.299Z,32.50
2018-10-09T12:23:51.601Z,36.65
2018-10-09T12:26:19.874Z,38.55
2018-10-09T12:28:48.155Z,32.50
2018-10-09T12:31:16.548Z,32.30
2018-10-09T12:33:44.836Z,33.58
2018-10-09T12:36:13.130Z,31.25
2018-10-09T12:38:41.471Z,32.78
2018-10-09T12:41:09.814Z,32.53
2018-10-09T12:43:38.109Z,26.80
2018-10-09T12:46:06.382Z,26.55
2018-10-09T12:48:35.027Z,20.52
2018-10-09T12:51:03.330Z,19.02
2018-10-09T12:53:31.639Z,19.02
2018-10-09T12:56:00.381Z,18.98
2018-10-09T12:58:28.680Z,22.67
2018-10-09T13:00:56.949Z,28.67
2018-10-09T13:03:25.476Z,25.52
2018-10-09T13:05:53.723Z,27.80
2018-10-09T13:08:21.999Z,28.67
2018-10-09T13:10:50.312Z,25.95
2018-10-09T13:13:19.287Z,29.85
2018-10-09T13:15:47.594Z,24.35
2018-10-09T13:18:15.938Z,28.23
2018-10-09T13:20:44.649Z,24.10
2018-10-09T13:23:12.944Z,28.62
2018-10-09T13:25:41.253Z,26.80
2018-10-09T13:28:09.638Z,23.87
2018-10-09T13:30:37.902Z,23.02
2018-10-09T13:33:06.384Z,28.40
2018-10-09T13:35:35.456Z,26.90
2018-10-09T13:38:03.813Z,26.75
2018-10-09T13:40:32.058Z,27.00
2018-10-09T13:43:00.443Z,34.67
2018-10-09T13:45:28.676Z,25.60
2018-10-09T13:47:56.954Z,25.50
2018-10-09T13:50:25.281Z,31.77
2018-10-09T13:52:53.525Z,28.52
2018-10-09T13:55:21.880Z,27.53
2018-10-09T13:57:50.122Z,25.70
2018-10-09T14:00:18.454Z,19.60
2018-10-09T14:02:46.713Z,23.40
2018-10-09T14:05:14.968Z,23.18
2018-10-09T14:07:43.288Z,25.95
2018-10-09T14:10:11.581Z,26.60
2018-10-09T14:12:39.872Z,25.12
2018-10-09T14:15:08.284Z,27.95
2018-10-09T14:17:36.461Z,24.75
2018-10-09T14:20:04.763Z,26.80
2018-10-09T14:22:33.172Z,27.02
2018-10-09T14:25:01.394Z,25.10
2018-10-09T14:27:29.664Z,27.05
2018-10-09T14:29:57.953Z,27.60
2018-10-09T14:32:26.497Z,27.85
2018-10-09T14:34:54.859Z,33.92
2018-10-09T14:37:23.235Z,29.95
2018-10-09T14:39:51.520Z,31.35
2018-10-09T14:42:20.264Z,25.82
2018-10-09T14:44:48.616Z,31.50
2018-10-09T14:47:17.655Z,30.60
2018-10-09T14:49:45.965Z,29.85
2018-10-09T14:52:14.480Z,27.75
2018-10-09T14:54:42.790Z,27.20
2018-10-09T14:57:11.063Z,29.75
2018-10-09T14:59:39.350Z,38.35
2018-10-09T15:02:08.156Z,33.13
2018-10-09T15:04:36.444Z,39.70
2018-10-09T15:07:04.703Z,34.67
2018-10-09T15:09:33.035Z,36.15
2018-10-09T15:12:01.283Z,28.70
2018-10-09T15:14:29.606Z,32.30
2018-10-09T15:16:57.901Z,31.50
2018-10-09T15:19:26.144Z,33.83
2018-10-09T15:21:54.416Z,30.75
2018-10-09T15:24:22.679Z,28.10
2018-10-09T15:26:50.984Z,28.42
2018-10-09T15:29:19.264Z,29.37
2018-10-09T15:31:47.767Z,32.73
2018-10-09T15:34:16.077Z,29.60
2018-10-09T15:36:44.839Z,34.58
2018-10-09T15:39:13.659Z,35.23
2018-10-09T15:41:42.574Z,52.83
2018-10-09T15:44:10.837Z,46.47
2018-10-09T15:46:39.351Z,44.97
2018-10-09T15:49:07.916Z,44.03
2018-10-09T15:51:36.180Z,33.50
2018-10-09T15:54:04.459Z,34.78
2018-10-09T15:56:32.865Z,35.80
2018-10-09T15:59:01.538Z,36.35
2018-10-09T16:01:29.772Z,35.93
2018-10-09T16:03:58.061Z,31.93
2018-10-09T16:06:26.301Z,38.02
2018-10-09T16:08:54.548Z,35.80
2018-10-09T16:11:22.842Z,48.25
2018-10-09T16:13:51.126Z,31.52
2018-10-09T16:16:19.412Z,33.90
2018-10-09T16:18:47.679Z,35.03
2018-10-09T16:21:15.950Z,41.20
2018-10-09T16:23:44.256Z,40.30
2018-10-09T16:26:12.536Z,43.25
2018-10-09T16:28:40.775Z,41.40
2018-10-09T16:31:09.395Z,32.05
2018-10-09T16:33:37.698Z,37.90
2018-10-09T16:36:05.996Z,34.53
2018-10-09T16:38:34.268Z,28.57
2018-10-09T16:41:02.536Z,30.35
2018-10-09T16:43:30.833Z,37.53
2018-10-09T16:45:59.187Z,35.78
2018-10-09T16:48:27.458Z,29.48
2018-10-09T16:50:55.725Z,33.75
2018-10-09T16:53:23.984Z,29.12
2018-10-09T16:55:52.252Z,39.88
2018-10-09T16:58:20.542Z,46.92
2018-10-09T17:00:48.807Z,38.15
2018-10-09T17:03:37.954Z,30.95
2018-10-09T17:06:07.056Z,37.33
2018-10-09T17:08:35.656Z,45.83
2018-10-09T17:11:03.951Z,40.95
2018-10-09T17:13:32.224Z,32.23
2018-10-09T17:16:00.509Z,33.75
2018-10-09T17:18:28.783Z,36.58
2018-10-09T17:20:56.995Z,33.30
2018-10-09T17:23:25.305Z,43.50
2018-10-09T17:25:53.589Z,36.23
2018-10-09T17:28:21.896Z,39.92
2018-10-09T17:30:50.124Z,33.60
2018-10-09T17:33:18.553Z,33.05
2018-10-09T17:35:46.741Z,30.17
2018-10-09T17:38:15.019Z,38.20
2018-10-09T17:40:43.292Z,35.33
2018-10-09T17:43:11.566Z,34.05
2018-10-09T17:45:39.834Z,47.95
2018-10-09T17:48:08.112Z,37.83
2018-10-09T17:50:36.456Z,38.48
2018-10-09T17:53:04.719Z,34.25
2018-10-09T17:55:32.983Z,35.30
2018-10-09T17:58:01.327Z,42.30
2018-10-09T18:00:29.590Z,35.50
2018-10-09T18:02:57.909Z,38.60
2018-10-09T18:05:26.172Z,49.80
2018-10-09T18:07:54.451Z,54.97
2018-10-09T18:10:22.724Z,62.13
2018-10-09T18:12:50.966Z,57.47
2018-10-09T18:15:19.707Z,51.87
2018-10-09T18:17:48.288Z,50.92
2018-10-09T18:20:16.590Z,46.88
2018-10-09T18:22:44.831Z,51.48
2018-10-09T18:25:13.166Z,43.00
2018-10-09T18:27:41.476Z,47.00
2018-10-09T18:30:10.269Z,46.43
2018-10-09T18:32:38.662Z,42.13
2018-10-09T18:35:06.956Z,40.05
2018-10-09T18:37:35.204Z,42.78
2018-10-09T18:40:03.512Z,42.75
2018-10-09T18:42:31.885Z,40.40
2018-10-09T18:45:00.101Z,49.80
2018-10-09T18:47:33.742Z,44.77
2018-10-09T18:50:02.012Z,40.78
2018-10-09T18:52:30.269Z,43.17
2018-10-09T18:54:58.851Z,41.25
2018-10-09T18:57:27.196Z,44.30
2018-10-09T18:59:55.512Z,43.87
2018-10-09T19:02:23.803Z,39.83
2018-10-09T19:04:52.195Z,80.03
2018-10-09T19:07:20.499Z,160.95
2018-10-09T19:09:49.097Z,175.60
2018-10-09T19:12:17.820Z,312.77
2018-10-09T19:14:46.548Z,344.45
2018-10-09T19:17:14.918Z,275.43
2018-10-09T19:19:43.529Z,155.90
2018-10-09T19:22:11.842Z,103.97
2018-10-09T19:24:40.143Z,394.10
2018-10-09T19:27:08.431Z,130.57
2018-10-09T19:29:36.697Z,74.72
2018-10-09T19:32:04.951Z,56.55
2018-10-09T19:34:33.260Z,48.05
2018-10-09T19:37:01.540Z,42.43
2018-10-09T19:39:29.905Z,49.67
2018-10-09T19:41:58.100Z,42.38
2018-10-09T19:44:26.379Z,45.20
2018-10-09T19:46:54.653Z,48.17
2018-10-09T19:49:22.908Z,46.37
2018-10-09T19:51:51.181Z,45.40
2018-10-09T19:54:19.426Z,41.50
2018-10-09T19:56:47.676Z,49.75
2018-10-09T19:59:15.997Z,65.30
2018-10-09T20:01:44.253Z,59.88
2018-10-09T20:04:12.550Z,56.53
2018-10-09T20:06:40.839Z,49.75
2018-10-09T20:09:10.938Z,52.30
2018-10-09T20:11:39.325Z,54.63
2018-10-09T20:14:08.581Z,51.40
2018-10-09T20:16:36.895Z,50.48
2018-10-09T20:19:05.207Z,55.40
2018-10-09T20:21:33.804Z,51.20
2018-10-09T20:24:02.096Z,51.20
2018-10-09T20:26:30.356Z,59.98
2018-10-09T20:28:58.619Z,54.88
2018-10-09T20:31:26.924Z,52.27
2018-10-09T20:33:55.221Z,56.88
2018-10-09T20:36:23.736Z,53.92
2018-10-09T20:38:52.019Z,53.52
2018-10-09T20:41:20.336Z,51.75
2018-10-09T20:43:48.708Z,52.20
2018-10-09T20:46:17.114Z,51.05
2018-10-09T20:48:45.600Z,53.63
2018-10-09T20:51:14.053Z,48.17
2018-10-09T20:53:42.340Z,47.35
2018-10-09T20:56:10.624Z,54.23
2018-10-09T20:58:39.194Z,50.55
2018-10-09T21:01:07.608Z,49.67
2018-10-09T21:03:35.934Z,52.00
2018-10-09T21:06:04.258Z,55.95
2018-10-09T21:08:32.506Z,58.10
2018-10-09T21:11:00.810Z,48.58
2018-10-09T21:13:29.078Z,51.50
2018-10-09T21:15:57.374Z,48.58
2018-10-09T21:18:25.869Z,54.90
2018-10-09T21:20:54.138Z,56.67
2018-10-09T21:23:22.407Z,50.73
2018-10-09T21:25:50.682Z,49.67
2018-10-09T21:28:18.974Z,50.70
2018-10-09T21:30:47.239Z,51.10
2018-10-09T21:33:15.520Z,49.60
2018-10-09T21:35:43.814Z,46.33
2018-10-09T21:38:12.106Z,47.67
2018-10-09T21:40:40.394Z,47.70
2018-10-09T21:43:08.694Z,48.10
2018-10-09T21:45:36.971Z,53.33
2018-10-09T21:48:05.630Z,47.50
2018-10-09T21:50:33.929Z,48.75
2018-10-09T21:53:02.232Z,45.23
2018-10-09T21:55:30.622Z,51.88
2018-10-09T21:57:59.135Z,48.05
2018-10-09T22:00:27.622Z,42.85
2018-10-09T22:02:56.307Z,44.38
2018-10-09T22:05:24.622Z,42.67
2018-10-09T22:07:53.354Z,41.80
2018-10-09T22:10:21.704Z,43.20
2018-10-09T22:12:49.982Z,47.15
2018-10-09T22:15:18.243Z,45.48
2018-10-09T22:17:46.519Z,40.30
2018-10-09T22:20:14.780Z,39.57
2018-10-09T22:22:43.056Z,41.87
2018-10-09T22:25:11.322Z,45.85
2018-10-09T22:27:39.640Z,42.48
2018-10-09T22:30:07.911Z,39.45
2018-10-09T22:32:36.216Z,39.88
2018-10-09T22:35:04.522Z,44.25
2018-10-09T22:37:32.782Z,41.23
2018-10-09T22:40:01.100Z,39.65
2018-10-09T22:42:29.375Z,40.48
2018-10-09T22:44:57.634Z,39.77
2018-10-09T22:47:25.915Z,40.03
2018-10-09T22:49:54.221Z,37.90
2018-10-09T22:52:22.570Z,36.85
2018-10-09T22:54:50.922Z,39.05
2018-10-09T22:57:19.235Z,41.77
2018-10-09T22:59:47.526Z,37.08
2018-10-09T23:02:15.835Z,39.90
2018-10-09T23:04:44.122Z,38.83
2018-10-09T23:07:12.463Z,37.67
2018-10-09T23:09:41.147Z,36.30
2018-10-09T23:12:09.406Z,39.98
2018-10-09T23:14:37.678Z,38.67
2018-10-09T23:17:05.963Z,33.60
2018-10-09T23:19:34.215Z,37.77
2018-10-09T23:22:02.548Z,33.20
2018-10-09T23:24:30.775Z,38.00
2018-10-09T23:26:59.040Z,36.25
2018-10-09T23:29:27.363Z,32.42
2018-10-09T23:31:55.645Z,34.92
2018-10-09T23:34:23.941Z,40.75
2018-10-09T23:36:52.277Z,36.15
2018-10-09T23:39:20.535Z,39.75
2018-10-09T23:41:48.846Z,37.67
2018-10-09T23:44:17.115Z,32.17
2018-10-09T23:46:45.450Z,43.38
2018-10-09T23:49:13.749Z,37.30
2018-10-09T23:51:42.050Z,42.88
2018-10-09T23:54:10.334Z,36.35
2018-10-09T23:56:38.651Z,41.10
2018-10-09T23:59:07.519Z,39.33
